createdAt,value
2019-03-27T00:01:40.455Z,80.39
2019-03-27T00:04:10.301Z,80.64
2019-03-27T00:06:40.406Z,80.72
2019-03-27T00:09:10.189Z,80.94
2019-03-27T00:11:40.003Z,81.48
2019-03-27T00:14:10.050Z,81.43
2019-03-27T00:16:39.906Z,82.03
2019-03-27T00:19:09.730Z,82.26
2019-03-27T00:21:39.807Z,82.27
2019-03-27T00:24:09.666Z,82.45
2019-03-27T00:26:39.502Z,82.45
2019-03-27T00:29:09.534Z,82.69
2019-03-27T00:31:39.394Z,82.90
2019-03-27T00:34:09.318Z,83.34
2019-03-27T00:36:39.295Z,82.98
2019-03-27T00:39:09.096Z,83.33
2019-03-27T00:41:38.896Z,83.36
2019-03-27T00:44:08.986Z,83.48
2019-03-27T00:46:38.828Z,83.67
2019-03-27T00:49:08.724Z,84.76
2019-03-27T00:51:38.716Z,84.36
2019-03-27T00:54:08.572Z,85.11
2019-03-27T00:56:38.374Z,85.34
2019-03-27T00:59:08.219Z,85.90
2019-03-27T01:01:38.002Z,85.68
2019-03-27T01:04:07.856Z,86.06
2019-03-27T01:06:37.939Z,86.09
2019-03-27T01:09:07.829Z,85.88
2019-03-27T01:11:37.684Z,86.21
2019-03-27T01:14:08.158Z,86.50
2019-03-27T01:16:37.976Z,87.21
2019-03-27T01:19:07.819Z,87.47
2019-03-27T01:21:37.948Z,88.08
2019-03-27T01:24:07.738Z,87.97
2019-03-27T01:26:37.623Z,87.16
2019-03-27T01:29:07.728Z,86.89
2019-03-27T01:31:37.546Z,86.58
2019-03-27T01:34:07.451Z,86.61
2019-03-27T01:36:37.380Z,86.02
2019-03-27T01:39:08.029Z,86.02
2019-03-27T01:41:37.856Z,85.99
2019-03-27T01:44:07.914Z,85.11
2019-03-27T01:46:37.843Z,84.42
2019-03-27T01:49:07.720Z,83.44
2019-03-27T01:51:37.555Z,83.25
2019-03-27T01:54:07.406Z,83.03
2019-03-27T01:56:37.287Z,82.19
2019-03-27T01:59:07.482Z,80.98
2019-03-27T02:01:37.320Z,79.47
2019-03-27T02:04:07.187Z,80.33
2019-03-27T02:06:37.251Z,79.92
2019-03-27T02:09:07.990Z,80.31
2019-03-27T02:11:37.794Z,80.54
2019-03-27T02:14:08.005Z,80.49
2019-03-27T02:16:37.879Z,80.13
2019-03-27T02:19:07.758Z,79.73
2019-03-27T02:21:37.765Z,79.50
2019-03-27T02:24:07.574Z,78.86
2019-03-27T02:26:37.474Z,78.56
2019-03-27T02:29:07.437Z,78.60
2019-03-27T02:31:37.258Z,78.33
2019-03-27T02:34:07.113Z,78.54
2019-03-27T02:36:37.185Z,78.21
2019-03-27T02:39:07.478Z,77.96
2019-03-27T02:41:37.429Z,77.97
2019-03-27T02:44:07.527Z,77.77
2019-03-27T02:46:37.296Z,78.02
2019-03-27T02:49:07.152Z,78.05
2019-03-27T02:51:37.176Z,77.84
2019-03-27T02:54:06.953Z,77.67
2019-03-27T02:56:36.786Z,78.00
2019-03-27T02:59:06.885Z,78.30
2019-03-27T03:01:36.770Z,77.94
2019-03-27T03:04:06.659Z,77.62
2019-03-27T03:06:36.957Z,78.32
2019-03-27T03:09:07.609Z,78.71
2019-03-27T03:11:37.557Z,78.28
2019-03-27T03:14:07.650Z,78.17
2019-03-27T03:16:42.740Z,78.62
2019-03-27T03:19:09.272Z,78.69
2019-03-27T03:21:39.094Z,78.73
2019-03-27T03:24:08.877Z,78.78
2019-03-27T03:26:38.970Z,79.40
2019-03-27T03:29:08.861Z,79.17
2019-03-27T03:31:38.805Z,80.38
2019-03-27T03:34:08.741Z,80.79
2019-03-27T03:36:38.557Z,80.91
2019-03-27T03:39:08.370Z,81.27
2019-03-27T03:41:38.445Z,82.53
2019-03-27T03:44:08.333Z,83.11
2019-03-27T03:46:38.159Z,84.86
2019-03-27T03:49:08.291Z,85.83
2019-03-27T03:51:38.217Z,85.69
2019-03-27T03:54:08.417Z,85.70
2019-03-27T03:56:41.193Z,85.43
2019-03-27T03:59:13.470Z,85.60
2019-03-27T04:01:45.921Z,85.37
2019-03-27T04:04:17.455Z,85.51
2019-03-27T04:06:47.342Z,86.33
2019-03-27T04:09:17.202Z,87.05
2019-03-27T04:11:47.042Z,87.38
2019-03-27T04:14:17.146Z,87.88
2019-03-27T04:16:46.951Z,88.66
2019-03-27T04:19:16.731Z,89.01
2019-03-27T04:21:46.576Z,89.58
2019-03-27T04:24:16.441Z,89.49
2019-03-27T04:26:46.335Z,88.43
2019-03-27T04:29:16.297Z,87.26
2019-03-27T04:31:46.213Z,87.50
2019-03-27T04:34:16.072Z,87.42
2019-03-27T04:36:46.336Z,88.18
2019-03-27T04:39:16.241Z,88.39
2019-03-27T04:41:46.061Z,88.34
2019-03-27T04:44:16.250Z,88.62
2019-03-27T04:46:46.086Z,88.29
2019-03-27T04:49:15.867Z,87.44
2019-03-27T04:51:45.881Z,87.64
2019-03-27T04:54:15.685Z,88.67
2019-03-27T04:56:45.572Z,88.07
2019-03-27T04:59:15.543Z,88.15
2019-03-27T05:01:45.395Z,87.90
2019-03-27T05:04:15.309Z,87.61
2019-03-27T05:06:45.143Z,88.03
2019-03-27T05:09:14.925Z,88.90
2019-03-27T05:11:44.741Z,88.95
2019-03-27T05:14:14.643Z,88.33
2019-03-27T05:16:44.672Z,88.50
2019-03-27T05:19:14.494Z,87.66
2019-03-27T05:21:44.482Z,87.91
2019-03-27T05:24:14.352Z,88.05
2019-03-27T05:26:44.230Z,87.81
2019-03-27T05:29:14.242Z,87.04
2019-03-27T05:31:44.222Z,87.75
2019-03-27T05:34:14.013Z,87.91
2019-03-27T05:36:43.952Z,88.35
2019-03-27T05:39:14.686Z,87.92
2019-03-27T05:41:44.726Z,87.31
2019-03-27T05:44:14.589Z,87.74
2019-03-27T05:46:44.555Z,87.54
2019-03-27T05:49:14.394Z,87.31
2019-03-27T05:51:44.274Z,86.20
2019-03-27T05:54:14.245Z,85.93
2019-03-27T05:56:44.083Z,86.50
2019-03-27T05:59:13.906Z,86.56
2019-03-27T06:01:43.948Z,86.60
2019-03-27T06:04:13.916Z,86.43
2019-03-27T06:06:43.871Z,86.32
2019-03-27T06:09:13.834Z,86.88
2019-03-27T06:11:43.698Z,86.43
2019-03-27T06:14:13.592Z,86.24
2019-03-27T06:16:43.480Z,86.16
2019-03-27T06:19:13.319Z,85.48
2019-03-27T06:21:43.165Z,86.33
2019-03-27T06:24:13.161Z,84.63
2019-03-27T06:26:42.993Z,85.51
2019-03-27T06:29:15.729Z,85.09
2019-03-27T06:31:44.688Z,85.61
2019-03-27T06:34:14.525Z,84.73
2019-03-27T06:36:44.338Z,85.09
2019-03-27T06:39:14.367Z,84.48
2019-03-27T06:41:44.183Z,82.61
2019-03-27T06:44:14.123Z,83.97
2019-03-27T06:46:44.146Z,82.65
2019-03-27T06:49:14.018Z,82.54
2019-03-27T06:51:44.018Z,81.13
2019-03-27T06:54:14.405Z,81.43
2019-03-27T06:56:44.378Z,81.82
2019-03-27T06:59:14.237Z,79.62
2019-03-27T07:01:44.305Z,80.40
2019-03-27T07:04:14.142Z,79.23
2019-03-27T07:06:44.065Z,77.15
2019-03-27T07:09:14.209Z,78.14
2019-03-27T07:11:44.027Z,76.19
2019-03-27T07:14:13.894Z,76.53
2019-03-27T07:16:44.055Z,76.01
2019-03-27T07:19:13.933Z,75.95
2019-03-27T07:21:43.866Z,75.37
2019-03-27T07:24:13.780Z,75.30
2019-03-27T07:26:43.562Z,75.75
2019-03-27T07:29:13.400Z,77.29
2019-03-27T07:31:43.244Z,76.23
2019-03-27T07:34:13.087Z,77.79
2019-03-27T07:36:42.988Z,76.53
2019-03-27T07:39:13.031Z,77.51
2019-03-27T07:41:42.866Z,75.87
2019-03-27T07:44:12.777Z,76.80
2019-03-27T07:46:42.745Z,75.84
2019-03-27T07:49:12.526Z,76.20
2019-03-27T07:51:42.351Z,76.44
2019-03-27T07:54:12.330Z,75.05
2019-03-27T07:56:42.199Z,76.78
2019-03-27T07:59:12.129Z,75.17
2019-03-27T08:01:42.188Z,76.02
2019-03-27T08:04:14.386Z,76.01
2019-03-27T08:06:43.765Z,76.17
2019-03-27T08:09:13.583Z,76.02
2019-03-27T08:11:43.349Z,76.25
2019-03-27T08:14:13.411Z,75.96
2019-03-27T08:16:43.291Z,75.68
2019-03-27T08:19:13.152Z,75.19
2019-03-27T08:21:43.207Z,74.79
2019-03-27T08:24:13.072Z,74.39
2019-03-27T08:26:42.920Z,74.09
2019-03-27T08:29:12.963Z,74.43
2019-03-27T08:31:42.780Z,74.39
2019-03-27T08:34:12.621Z,74.36
2019-03-27T08:36:42.698Z,75.41
2019-03-27T08:39:12.522Z,73.10
2019-03-27T08:41:42.274Z,73.39
2019-03-27T08:44:12.223Z,72.76
2019-03-27T08:46:42.150Z,72.44
2019-03-27T08:49:21.765Z,71.48
2019-03-27T08:51:43.676Z,70.43
2019-03-27T08:54:13.497Z,71.43
2019-03-27T08:56:43.288Z,70.81
2019-03-27T08:59:13.338Z,71.72
2019-03-27T09:01:43.158Z,70.26
2019-03-27T09:04:12.953Z,68.77
2019-03-27T09:06:43.054Z,67.38
2019-03-27T09:09:12.911Z,69.10
2019-03-27T09:11:42.751Z,65.21
2019-03-27T09:14:12.852Z,63.90
2019-03-27T09:16:43.267Z,60.03
2019-03-27T09:19:13.041Z,62.78
2019-03-27T09:21:43.126Z,58.09
2019-03-27T09:24:13.172Z,55.03
2019-03-27T09:26:43.256Z,54.61
2019-03-27T09:29:13.164Z,52.79
2019-03-27T09:31:45.121Z,54.05
2019-03-27T09:34:17.588Z,54.31
2019-03-27T09:36:46.330Z,57.67
2019-03-27T09:39:16.362Z,57.60
2019-03-27T09:41:46.197Z,57.33
2019-03-27T09:44:16.030Z,58.52
2019-03-27T09:46:45.874Z,58.02
2019-03-27T09:49:15.735Z,56.52
2019-03-27T09:51:45.736Z,54.59
2019-03-27T09:54:15.518Z,52.31
2019-03-27T09:56:45.359Z,53.18
2019-03-27T09:59:15.307Z,54.93
2019-03-27T10:01:45.279Z,55.09
2019-03-27T10:04:15.099Z,54.99
2019-03-27T10:06:46.158Z,54.08
2019-03-27T10:09:16.119Z,56.34
2019-03-27T10:11:45.953Z,58.98
2019-03-27T10:14:15.893Z,61.70
2019-03-27T10:16:45.723Z,62.65
2019-03-27T10:19:15.544Z,64.62
2019-03-27T10:21:45.559Z,65.29
2019-03-27T10:24:15.398Z,62.87
2019-03-27T10:26:45.179Z,59.68
2019-03-27T10:29:15.073Z,55.25
2019-03-27T10:31:44.883Z,55.89
2019-03-27T10:34:14.681Z,52.54
2019-03-27T10:36:44.670Z,53.72
2019-03-27T10:39:14.618Z,54.13
2019-03-27T10:41:44.523Z,55.84
2019-03-27T10:44:17.433Z,60.04
2019-03-27T10:46:46.123Z,62.71
2019-03-27T10:49:16.013Z,64.85
2019-03-27T10:51:45.876Z,66.31
2019-03-27T10:54:15.721Z,67.41
2019-03-27T10:56:45.681Z,67.72
2019-03-27T10:59:15.601Z,68.22
2019-03-27T11:01:45.650Z,70.12
2019-03-27T11:04:15.541Z,70.90
2019-03-27T11:06:45.409Z,71.61
2019-03-27T11:09:15.189Z,70.28
2019-03-27T11:11:45.073Z,67.74
2019-03-27T11:14:14.967Z,66.27
2019-03-27T11:16:44.756Z,64.95
2019-03-27T11:19:14.552Z,64.37
2019-03-27T11:21:44.439Z,65.94
2019-03-27T11:24:14.241Z,67.38
2019-03-27T11:26:44.061Z,68.07
2019-03-27T11:29:14.057Z,68.01
2019-03-27T11:31:43.922Z,69.03
2019-03-27T11:34:13.922Z,67.33
2019-03-27T11:36:43.765Z,68.07
2019-03-27T11:39:13.568Z,67.18
2019-03-27T11:41:43.423Z,65.64
2019-03-27T11:44:13.300Z,66.25
2019-03-27T11:46:43.155Z,64.80
2019-03-27T11:49:13.183Z,65.87
2019-03-27T11:51:43.090Z,64.33
2019-03-27T11:54:12.976Z,64.77
2019-03-27T11:56:42.992Z,65.62
2019-03-27T11:59:12.867Z,64.93
2019-03-27T12:01:43.891Z,66.27
2019-03-27T12:04:13.875Z,67.86
2019-03-27T12:06:43.801Z,68.69
2019-03-27T12:09:13.673Z,68.38
2019-03-27T12:11:43.515Z,69.32
2019-03-27T12:14:13.442Z,69.70
2019-03-27T12:16:43.238Z,69.46
2019-03-27T12:19:13.165Z,69.99
2019-03-27T12:21:42.979Z,68.51
2019-03-27T12:24:12.825Z,68.76
2019-03-27T12:26:42.720Z,68.16
2019-03-27T12:29:12.586Z,69.34
2019-03-27T12:31:42.374Z,69.71
2019-03-27T12:34:12.276Z,69.40
2019-03-27T12:36:42.166Z,69.50
2019-03-27T12:39:12.012Z,68.52
2019-03-27T12:41:42.157Z,68.13
2019-03-27T12:44:12.074Z,68.75
2019-03-27T12:46:41.996Z,68.48
2019-03-27T12:49:11.979Z,67.95
2019-03-27T12:51:41.812Z,67.56
2019-03-27T12:54:11.648Z,67.51
2019-03-27T12:56:41.688Z,67.63
2019-03-27T12:59:11.590Z,67.27
2019-03-27T13:01:41.420Z,68.69
2019-03-27T13:04:11.337Z,68.91
2019-03-27T13:06:41.237Z,69.79
2019-03-27T13:09:11.017Z,70.17
2019-03-27T13:11:40.989Z,71.92
2019-03-27T13:14:10.936Z,71.88
2019-03-27T13:16:40.801Z,71.04
2019-03-27T13:19:10.803Z,70.93
2019-03-27T13:25:12.636Z,69.74
2019-03-27T13:27:42.717Z,69.71
2019-03-27T13:30:13.127Z,68.60
2019-03-27T13:32:42.972Z,68.28
2019-03-27T13:35:13.957Z,65.38
2019-03-27T13:37:43.766Z,65.15
2019-03-27T13:40:14.120Z,66.06
2019-03-27T13:42:44.198Z,66.97
2019-03-27T13:45:14.587Z,67.44
2019-03-27T13:47:44.428Z,67.11
2019-03-27T13:50:15.389Z,67.65
2019-03-27T13:52:45.236Z,66.46
2019-03-27T13:55:15.564Z,66.61
2019-03-27T13:57:45.406Z,66.74
2019-03-27T14:00:16.911Z,65.98
2019-03-27T14:02:46.954Z,66.86
2019-03-27T14:05:17.016Z,65.91
2019-03-27T14:07:46.783Z,66.18
2019-03-27T14:10:17.178Z,66.87
2019-03-27T14:12:47.034Z,65.48
2019-03-27T14:15:17.327Z,65.36
2019-03-27T14:17:47.322Z,65.41
2019-03-27T14:20:18.129Z,65.35
2019-03-27T14:22:48.481Z,65.11
2019-03-27T14:25:21.937Z,65.07
2019-03-27T14:27:50.883Z,64.43
2019-03-27T14:30:52.051Z,64.86
2019-03-27T14:33:22.816Z,64.57
2019-03-27T14:35:52.955Z,64.64
2019-03-27T14:38:23.305Z,64.76
2019-03-27T14:40:53.218Z,62.34
2019-03-27T14:43:23.078Z,62.89
2019-03-27T14:45:52.970Z,62.86
2019-03-27T14:48:22.811Z,62.31
2019-03-27T14:50:52.718Z,62.27
2019-03-27T14:53:22.656Z,63.48
2019-03-27T14:55:52.653Z,63.85
2019-03-27T14:58:22.524Z,64.23
2019-03-27T15:00:52.543Z,65.06
2019-03-27T15:03:22.317Z,65.35
2019-03-27T15:05:52.126Z,65.73
2019-03-27T15:08:22.019Z,66.46
2019-03-27T15:10:52.279Z,66.74
2019-03-27T15:13:22.573Z,65.76
2019-03-27T15:15:52.411Z,67.21
2019-03-27T15:18:22.408Z,66.93
2019-03-27T15:20:52.289Z,67.15
2019-03-27T15:23:22.167Z,67.13
2019-03-27T15:25:52.230Z,66.99
2019-03-27T15:28:22.101Z,68.31
2019-03-27T15:30:52.004Z,68.66
2019-03-27T15:33:21.838Z,68.88
2019-03-27T15:35:51.660Z,68.75
2019-03-27T15:38:21.488Z,68.22
2019-03-27T15:40:51.471Z,68.63
2019-03-27T15:43:21.324Z,68.41
2019-03-27T15:45:51.333Z,67.92
2019-03-27T15:48:21.327Z,67.96
2019-03-27T15:50:58.475Z,67.90
2019-03-27T15:53:23.288Z,68.26
2019-03-27T15:55:53.234Z,68.06
2019-03-27T15:58:23.117Z,67.82
2019-03-27T16:00:53.031Z,67.52
2019-03-27T16:03:22.920Z,68.36
2019-03-27T16:05:52.945Z,67.91
2019-03-27T16:08:23.322Z,68.65
2019-03-27T16:10:53.137Z,69.40
2019-03-27T16:13:22.966Z,69.24
2019-03-27T16:15:52.930Z,69.63
2019-03-27T16:18:22.741Z,69.10
2019-03-27T16:20:52.559Z,69.92
2019-03-27T16:23:22.634Z,69.66
2019-03-27T16:25:52.537Z,69.88
2019-03-27T16:28:22.381Z,70.21
2019-03-27T16:30:52.390Z,69.81
2019-03-27T16:33:22.208Z,70.01
2019-03-27T16:35:52.074Z,70.01
2019-03-27T16:38:22.057Z,70.06
2019-03-27T16:40:51.846Z,70.84
2019-03-27T16:43:21.638Z,70.66
2019-03-27T16:45:52.194Z,70.84
2019-03-27T16:48:22.131Z,70.20
2019-03-27T16:50:52.232Z,70.55
2019-03-27T16:53:22.484Z,70.33
2019-03-27T16:55:52.484Z,70.51
2019-03-27T16:58:22.353Z,71.02
2019-03-27T17:00:52.451Z,70.42
2019-03-27T17:03:22.250Z,69.98
2019-03-27T17:05:54.146Z,70.67
2019-03-27T17:08:24.145Z,70.44
2019-03-27T17:10:54.000Z,70.42
2019-03-27T17:13:24.304Z,70.55
2019-03-27T17:15:54.413Z,70.40
2019-03-27T17:18:24.278Z,70.16
2019-03-27T17:20:54.098Z,70.73
2019-03-27T17:23:24.273Z,70.81
2019-03-27T17:25:54.213Z,70.57
2019-03-27T17:28:24.085Z,70.70
2019-03-27T17:30:54.155Z,71.18
2019-03-27T17:33:23.997Z,71.45
2019-03-27T17:35:53.879Z,71.51
2019-03-27T17:38:23.908Z,71.22
2019-03-27T17:40:53.805Z,71.65
2019-03-27T17:43:23.655Z,71.77
2019-03-27T17:45:53.719Z,71.40
2019-03-27T17:48:23.517Z,71.62
2019-03-27T17:50:53.464Z,72.05
2019-03-27T17:53:31.676Z,72.29
2019-03-27T17:55:55.352Z,72.30
2019-03-27T17:58:25.532Z,73.14
2019-03-27T18:00:58.297Z,72.93
2019-03-27T18:03:28.300Z,74.10
2019-03-27T18:05:58.175Z,74.62
2019-03-27T18:08:28.046Z,76.02
2019-03-27T18:10:58.067Z,76.88
2019-03-27T18:13:27.872Z,77.17
2019-03-27T18:15:57.854Z,78.08
2019-03-27T18:18:27.716Z,78.73
2019-03-27T18:20:57.668Z,79.90
2019-03-27T18:23:27.660Z,80.54
2019-03-27T18:25:57.714Z,80.94
2019-03-27T18:28:27.857Z,81.35
2019-03-27T18:30:58.020Z,81.83
2019-03-27T18:33:27.819Z,82.68
2019-03-27T18:35:57.747Z,83.11
2019-03-27T18:38:27.583Z,83.61
2019-03-27T18:40:57.492Z,84.47
2019-03-27T18:43:27.443Z,84.75
2019-03-27T18:45:57.727Z,84.70
2019-03-27T18:48:27.555Z,85.16
2019-03-27T18:50:57.337Z,85.71
2019-03-27T18:53:27.259Z,86.37
2019-03-27T18:55:57.073Z,86.59
2019-03-27T18:58:26.940Z,86.79
2019-03-27T19:00:56.858Z,86.90
2019-03-27T19:03:26.703Z,86.97
2019-03-27T19:05:56.590Z,87.54
2019-03-27T19:08:26.598Z,87.83
2019-03-27T19:10:56.473Z,87.81
2019-03-27T19:13:26.294Z,88.23
2019-03-27T19:15:56.419Z,88.45
2019-03-27T19:18:26.294Z,88.37
2019-03-27T19:20:56.145Z,88.30
2019-03-27T19:23:25.988Z,88.53
2019-03-27T19:25:55.802Z,88.59
2019-03-27T19:28:25.787Z,88.66
2019-03-27T19:30:55.750Z,88.87
2019-03-27T19:33:25.591Z,89.03
2019-03-27T19:35:55.443Z,89.00
2019-03-27T19:38:25.312Z,88.76
2019-03-27T19:40:55.092Z,89.20
2019-03-27T19:43:24.940Z,89.00
2019-03-27T19:45:57.348Z,89.49
2019-03-27T19:48:26.339Z,89.75
2019-03-27T19:50:56.246Z,89.98
2019-03-27T19:53:26.231Z,89.81
2019-03-27T19:55:56.115Z,90.01
2019-03-27T19:58:26.279Z,90.62
2019-03-27T20:00:56.138Z,90.49
2019-03-27T20:03:25.973Z,90.70
2019-03-27T20:05:55.843Z,90.83
2019-03-27T20:08:25.732Z,90.98
2019-03-27T20:10:55.645Z,91.25
2019-03-27T20:13:25.522Z,91.15
2019-03-27T20:15:55.431Z,91.31
2019-03-27T20:18:25.293Z,91.49
2019-03-27T20:20:55.161Z,91.92
2019-03-27T20:23:25.066Z,91.78
2019-03-27T20:25:54.969Z,92.26
2019-03-27T20:28:24.959Z,92.29
2019-03-27T20:30:55.124Z,92.59
2019-03-27T20:33:25.007Z,92.28
2019-03-27T20:35:54.814Z,92.58
2019-03-27T20:38:24.634Z,91.97
2019-03-27T20:40:54.664Z,92.58
2019-03-27T20:43:24.614Z,92.15
2019-03-27T20:45:54.575Z,92.26
2019-03-27T20:48:24.394Z,92.56
2019-03-27T20:50:54.378Z,92.18
2019-03-27T20:53:24.245Z,91.99
2019-03-27T20:55:54.229Z,92.10
2019-03-27T20:58:24.256Z,92.25
2019-03-27T21:00:54.215Z,92.09
2019-03-27T21:03:24.114Z,91.87
2019-03-27T21:05:54.103Z,92.00
2019-03-27T21:08:24.020Z,92.58
2019-03-27T21:10:55.989Z,92.61
2019-03-27T21:13:26.433Z,92.91
2019-03-27T21:15:56.313Z,93.01
2019-03-27T21:18:26.298Z,93.27
2019-03-27T21:20:56.135Z,93.27
2019-03-27T21:23:26.075Z,93.35
2019-03-27T21:25:56.484Z,93.32
2019-03-27T21:28:26.314Z,93.28
2019-03-27T21:30:56.202Z,93.49
2019-03-27T21:33:26.299Z,93.22
2019-03-27T21:35:56.107Z,94.17
2019-03-27T21:38:25.991Z,94.34
2019-03-27T21:40:56.005Z,94.20
2019-03-27T21:43:25.872Z,94.41
2019-03-27T21:45:55.775Z,94.64
2019-03-27T21:48:25.928Z,94.71
2019-03-27T21:50:55.740Z,94.66
2019-03-27T21:53:25.608Z,94.75
2019-03-27T21:55:55.459Z,94.78
2019-03-27T21:58:25.287Z,94.68
2019-03-27T22:00:55.164Z,94.46
2019-03-27T22:03:25.134Z,94.28
2019-03-27T22:05:55.035Z,94.34
2019-03-27T22:08:24.848Z,94.20
2019-03-27T22:10:54.878Z,94.15
2019-03-27T22:13:24.742Z,93.97
2019-03-27T22:15:54.665Z,94.05
2019-03-27T22:18:24.707Z,94.11
2019-03-27T22:20:54.520Z,94.02
2019-03-27T22:23:24.336Z,94.03
2019-03-27T22:25:54.154Z,94.33
2019-03-27T22:28:24.013Z,94.66
2019-03-27T22:30:53.955Z,94.84
2019-03-27T22:33:23.898Z,94.89
2019-03-27T22:35:53.791Z,94.87
2019-03-27T22:38:23.641Z,94.82
2019-03-27T22:40:53.618Z,94.83
2019-03-27T22:43:23.460Z,94.93
2019-03-27T22:45:53.296Z,95.00
2019-03-27T22:48:23.147Z,95.17
2019-03-27T22:50:52.990Z,95.12
2019-03-27T22:53:22.884Z,95.06
2019-03-27T22:55:52.842Z,95.14
2019-03-27T22:58:22.714Z,95.10
2019-03-27T23:00:54.893Z,95.32
2019-03-27T23:03:24.721Z,95.24
2019-03-27T23:05:54.565Z,95.26
2019-03-27T23:08:24.672Z,95.18
2019-03-27T23:10:54.507Z,95.16
2019-03-27T23:13:24.346Z,95.08
2019-03-27T23:15:54.378Z,95.30
2019-03-27T23:18:24.225Z,95.53
2019-03-27T23:20:54.098Z,95.75
2019-03-27T23:23:24.160Z,95.81
2019-03-27T23:26:02.891Z,95.82
2019-03-27T23:28:25.991Z,95.83
2019-03-27T23:30:55.834Z,95.51
2019-03-27T23:33:25.651Z,95.44
2019-03-27T23:35:55.660Z,95.36
2019-03-27T23:38:25.467Z,95.31
2019-03-27T23:40:55.312Z,95.24
2019-03-27T23:43:25.268Z,95.13
2019-03-27T23:45:56.107Z,95.12
2019-03-27T23:48:26.128Z,95.03
2019-03-27T23:50:55.973Z,94.93
2019-03-27T23:53:25.832Z,94.82
2019-03-27T23:55:55.810Z,94.94
2019-03-27T23:58:25.686Z,94.92
